Time;durP1;ratioP1;P1;durP2;ratioP2;P2;SDS_P1;SDS_P2;PMS_P1;PMS_P2;Temp;Humidity;BMP_temperature;BMP_pressure;BME280_temperature;BME280_humidity;BME280_pressure;Samples;Min_cycle;Max_cycle;Signal;HPM_P1;HPM_P2
2021/10/14 00:00:36;;;;;;;11.10;8.63;;;;;;;9.80;100.00;101984.88;10258220;28;20053;-69
2021/10/14 00:05:33;;;;;;;13.65;10.02;;;;;;;9.77;100.00;101985.44;10263078;28;20044;-69
2021/10/14 00:10:30;;;;;;;13.65;9.43;;;;;;;9.80;100.00;101984.88;10266972;28;20090;-70
2021/10/14 00:15:27;;;;;;;10.27;9.18;;;;;;;9.79;100.00;101983.22;10258812;28;20102;-69
2021/10/14 00:20:24;;;;;;;13.18;10.13;;;;;;;9.87;100.00;101990.84;10263297;28;20498;-70
2021/10/14 00:25:22;;;;;;;17.30;12.02;;;;;;;9.87;100.00;101985.38;10259943;28;20473;-69
2021/10/14 00:30:19;;;;;;;16.13;12.75;;;;;;;9.86;100.00;101988.38;10255829;28;20091;-69
2021/10/14 00:35:16;;;;;;;13.70;11.30;;;;;;;9.92;100.00;101981.00;10250129;28;20049;-69
2021/10/14 00:40:13;;;;;;;18.10;12.65;;;;;;;10.00;100.00;101980.38;10266653;28;20088;-69
2021/10/14 00:45:10;;;;;;;14.73;12.13;;;;;;;10.05;100.00;101980.38;10266578;28;20049;-69
2021/10/14 00:50:08;;;;;;;16.95;13.00;;;;;;;10.10;100.00;101966.66;10264131;28;20052;-69
2021/10/14 00:55:05;;;;;;;16.05;13.40;;;;;;;10.13;100.00;101957.88;10255891;28;20053;-70
2021/10/14 01:00:04;;;;;;;21.02;15.55;;;;;;;10.13;100.00;101949.69;10244479;28;20131;-69
2021/10/14 01:05:01;;;;;;;17.25;13.80;;;;;;;10.19;100.00;101945.81;10246517;28;20491;-69
2021/10/14 01:09:57;;;;;;;19.30;15.27;;;;;;;10.21;100.00;101951.81;10264361;28;20088;-70
2021/10/14 01:14:54;;;;;;;19.73;15.35;;;;;;;10.29;100.00;101953.97;10264708;28;20079;-69
2021/10/14 01:19:50;;;;;;;22.48;18.08;;;;;;;10.36;100.00;101953.66;10262275;28;20380;-69
2021/10/14 01:24:47;;;;;;;19.73;15.55;;;;;;;10.41;100.00;101950.06;10263276;28;20179;-69
2021/10/14 01:29:43;;;;;;;27.20;19.48;;;;;;;10.42;100.00;101946.19;10252642;28;20388;-69
2021/10/14 01:34:40;;;;;;;25.70;19.63;;;;;;;10.44;100.00;101954.94;10253260;28;20125;-70
2021/10/14 01:39:36;;;;;;;28.23;18.85;;;;;;;10.52;100.00;101954.34;10257557;28;20111;-70
2021/10/14 01:44:33;;;;;;;24.88;17.80;;;;;;;10.56;100.00;101957.28;10260852;28;20049;-70
2021/10/14 01:49:29;;;;;;;23.67;16.58;;;;;;;10.49;100.00;101954.91;10251280;28;20041;-70
2021/10/14 01:54:26;;;;;;;21.50;17.05;;;;;;;10.48;100.00;101950.53;10261085;28;20115;-70
2021/10/14 01:59:28;;;;;;;22.33;17.13;;;;;;;10.52;100.00;101957.06;10262251;28;20090;-70
2021/10/14 02:04:25;;;;;;;21.77;15.50;;;;;;;10.55;100.00;101945.53;10257692;28;20041;-70
2021/10/14 02:09:21;;;;;;;20.13;15.15;;;;;;;10.59;100.00;101951.28;10259463;28;20123;-70
2021/10/14 02:14:18;;;;;;;20.17;15.27;;;;;;;10.61;100.00;101944.41;10253958;28;20095;-70
2021/10/14 02:19:15;;;;;;;20.67;13.55;;;;;;;10.64;100.00;101948.47;10255069;28;20052;-70
2021/10/14 02:24:12;;;;;;;15.50;12.50;;;;;;;10.66;100.00;101944.34;10261901;28;20044;-70
2021/10/14 02:29:12;;;;;;;16.25;13.07;;;;;;;10.68;100.00;101942.16;10254040;28;20041;-69
2021/10/14 02:34:08;;;;;;;16.33;12.45;;;;;;;10.72;100.00;101945.09;10249193;28;20041;-70
2021/10/14 02:39:05;;;;;;;16.95;12.40;;;;;;;10.74;100.00;101942.91;10256079;28;20068;-70
2021/10/14 02:44:02;;;;;;;17.83;11.05;;;;;;;10.73;100.00;101936.63;10258330;28;20069;-70
2021/10/14 02:48:58;;;;;;;16.00;10.93;;;;;;;10.81;100.00;101945.28;10258100;28;20071;-70
2021/10/14 02:53:55;;;;;;;14.55;11.35;;;;;;;10.87;100.00;101938.69;10259064;28;20132;-70
2021/10/14 02:58:51;;;;;;;16.25;11.55;;;;;;;10.89;100.00;101941.94;10264325;28;20069;-70
2021/10/14 03:03:48;;;;;;;25.27;14.98;;;;;;;10.85;100.00;101944.44;10256919;28;20080;-70
2021/10/14 03:08:44;;;;;;;27.20;14.75;;;;;;;10.89;100.00;101939.19;10250488;28;20128;-70
2021/10/14 03:13:41;;;;;;;23.92;16.10;;;;;;;10.87;100.00;101933.19;10264484;28;20091;-70
2021/10/14 03:18:38;;;;;;;23.13;16.25;;;;;;;10.89;100.00;101929.06;10270663;28;20136;-71
2021/10/14 03:23:35;;;;;;;24.15;15.25;;;;;;;10.94;100.00;101928.19;10274097;28;20162;-70
2021/10/14 03:28:31;;;;;;;21.73;14.75;;;;;;;11.01;100.00;101925.13;10266864;28;20084;-70
2021/10/14 03:33:28;;;;;;;18.73;13.27;;;;;;;11.05;100.00;101926.97;10259081;28;20092;-72
2021/10/14 03:38:25;;;;;;;17.75;12.48;;;;;;;11.02;100.00;101922.06;10261733;28;20495;-74
2021/10/14 03:43:21;;;;;;;14.85;11.02;;;;;;;11.04;100.00;101919.06;10259382;28;20238;-74
2021/10/14 03:48:18;;;;;;;13.93;9.57;;;;;;;11.04;100.00;101925.34;10265340;28;20048;-73
2021/10/14 03:53:14;;;;;;;12.05;9.05;;;;;;;11.06;100.00;101920.38;10269995;28;20424;-74
2021/10/14 03:58:11;;;;;;;10.70;8.50;;;;;;;11.08;100.00;101925.56;10273899;28;20637;-74
2021/10/14 04:03:08;;;;;;;12.00;7.93;;;;;;;11.06;100.00;101914.91;10252395;28;20534;-74
2021/10/14 04:08:04;;;;;;;10.02;7.22;;;;;;;11.10;100.00;101924.19;10257928;28;20072;-74
2021/10/14 04:13:01;;;;;;;9.35;7.30;;;;;;;11.13;100.00;101911.81;10248859;28;20107;-73
2021/10/14 04:17:57;;;;;;;10.82;6.65;;;;;;;11.13;100.00;101918.09;10264726;28;20103;-73
2021/10/14 04:22:54;;;;;;;7.22;5.40;;;;;;;11.13;100.00;101907.16;10251714;28;20087;-73
2021/10/14 04:27:50;;;;;;;6.38;4.68;;;;;;;11.14;100.00;101906.06;10256113;28;20064;-73
2021/10/14 04:32:47;;;;;;;5.97;4.35;;;;;;;11.17;100.00;101904.66;10252093;28;20111;-74
2021/10/14 04:37:44;;;;;;;7.80;5.20;;;;;;;11.16;100.00;101912.06;10249955;28;20080;-73
2021/10/14 04:42:41;;;;;;;6.85;4.82;;;;;;;11.19;100.00;101910.66;10263047;28;20469;-74
2021/10/14 04:47:38;;;;;;;6.70;4.30;;;;;;;11.18;100.00;101902.75;10253596;28;20048;-72
2021/10/14 04:52:36;;;;;;;6.47;4.53;;;;;;;11.21;100.00;101902.13;10256106;28;20076;-72
2021/10/14 04:57:33;;;;;;;6.85;4.65;;;;;;;11.23;100.00;101899.94;10248179;28;20526;-73
2021/10/14 05:02:30;;;;;;;6.63;4.18;;;;;;;11.22;100.00;101898.31;10255209;28;20072;-72
2021/10/14 05:07:30;;;;;;;7.65;4.53;;;;;;;11.25;100.00;101892.25;10272415;28;20152;-73
2021/10/14 05:12:27;;;;;;;5.03;3.10;;;;;;;11.28;100.00;101894.38;10260777;28;20033;-73
2021/10/14 05:17:23;;;;;;;5.97;3.33;;;;;;;11.27;100.00;101890.03;10244054;28;20041;-74
2021/10/14 05:22:20;;;;;;;5.40;3.17;;;;;;;11.26;100.00;101885.69;10241296;28;20495;-73
2021/10/14 05:27:16;;;;;;;7.07;4.63;;;;;;;11.29;100.00;101887.81;10264568;28;20045;-73
2021/10/14 05:32:13;;;;;;;8.23;5.25;;;;;;;11.33;100.00;101889.66;10250341;28;20084;-72
2021/10/14 05:37:09;;;;;;;8.90;6.22;;;;;;;11.37;100.00;101900.84;10254334;28;20041;-73
2021/10/14 05:42:06;;;;;;;9.90;5.80;;;;;;;11.40;100.00;101889.31;10260627;28;20115;-74
2021/10/14 05:47:02;;;;;;;10.18;6.68;;;;;;;11.41;100.00;101888.19;10260278;28;20084;-74
2021/10/14 05:51:59;;;;;;;14.00;9.20;;;;;;;11.48;100.00;101885.91;10256367;28;20095;-74
2021/10/14 05:56:55;;;;;;;18.02;10.68;;;;;;;11.49;100.00;101897.69;10249591;28;20537;-73
2021/10/14 06:01:52;;;;;;;22.42;13.95;;;;;;;11.49;100.00;101887.53;10257020;28;20550;-74
2021/10/14 06:06:49;;;;;;;23.77;15.25;;;;;;;11.52;100.00;101892.41;10260237;28;20073;-74
2021/10/14 06:11:45;;;;;;;22.40;15.57;;;;;;;11.54;100.00;101890.19;10255194;28;20057;-74
2021/10/14 06:16:42;;;;;;;24.77;14.10;;;;;;;11.58;100.00;101891.25;10252889;28;20092;-74
2021/10/14 06:21:39;;;;;;;27.38;15.88;;;;;;;11.57;100.00;101889.59;10256922;28;20045;-72
2021/10/14 06:26:35;;;;;;;35.15;16.77;;;;;;;11.56;100.00;101877.03;10269945;28;20045;-71
2021/10/14 06:31:32;;;;;;;24.98;14.98;;;;;;;11.60;100.00;101888.19;10263998;28;20053;-73
2021/10/14 06:36:28;;;;;;;23.88;15.35;;;;;;;11.61;100.00;101884.38;10257233;28;20052;-74
2021/10/14 06:41:24;;;;;;;25.70;14.45;;;;;;;11.57;100.00;101880.56;10259318;28;20041;-74
2021/10/14 06:46:21;;;;;;;24.85;12.63;;;;;;;11.61;100.00;101883.56;10264836;28;20098;-73
2021/10/14 06:51:17;;;;;;;25.05;14.18;;;;;;;11.63;100.00;101873.09;10252471;28;20041;-73
2021/10/14 06:56:14;;;;;;;22.50;10.68;;;;;;;11.69;100.00;101874.66;10262632;28;20494;-72
2021/10/14 07:01:13;;;;;;;19.45;8.82;;;;;;;11.69;100.00;101871.91;10260001;28;20049;-73
2021/10/14 07:06:09;;;;;;;15.77;8.60;;;;;;;11.73;100.00;101875.69;10253675;28;20045;-73
2021/10/14 07:11:06;;;;;;;17.63;8.15;;;;;;;11.75;100.00;101862.50;10264280;28;20041;-74
2021/10/14 07:16:03;;;;;;;16.13;8.60;;;;;;;11.78;100.00;101872.88;10264945;28;20072;-72
2021/10/14 07:21:01;;;;;;;23.45;10.52;;;;;;;11.81;100.00;101866.78;10261293;28;20086;-72
2021/10/14 07:26:02;;;;;;;17.67;10.70;;;;;;;11.82;100.00;101879.38;10263502;28;20045;-72
2021/10/14 07:30:58;;;;;;;15.48;10.05;;;;;;;11.80;100.00;101879.66;10256452;28;20044;-73
2021/10/14 07:35:55;;;;;;;17.17;10.38;;;;;;;11.86;100.00;101879.59;10270715;28;20103;-73
2021/10/14 07:40:51;;;;;;;16.85;10.27;;;;;;;11.81;100.00;101885.97;10258263;28;20048;-73
2021/10/14 07:45:48;;;;;;;19.95;11.20;;;;;;;11.82;100.00;101892.28;10265828;28;20064;-73
2021/10/14 07:50:44;;;;;;;20.27;11.25;;;;;;;11.87;100.00;101898.50;10257076;28;20052;-73
2021/10/14 07:55:42;;;;;;;31.23;13.13;;;;;;;11.85;100.00;101900.69;10261402;28;20075;-73
2021/10/14 08:00:39;;;;;;;20.80;12.18;;;;;;;11.86;100.00;101901.50;10268939;28;20041;-73
2021/10/14 08:05:36;;;;;;;20.05;11.60;;;;;;;11.91;100.00;101899.56;10254643;28;20069;-75
2021/10/14 08:10:33;;;;;;;19.35;11.57;;;;;;;11.90;100.00;101897.91;10260040;28;20068;-74
2021/10/14 08:15:30;;;;;;;26.85;12.00;;;;;;;11.90;100.00;101894.34;10261345;28;20041;-72
2021/10/14 08:20:28;;;;;;;20.55;11.43;;;;;;;11.96;100.00;101891.25;10268353;28;20068;-73
2021/10/14 08:25:25;;;;;;;15.80;10.43;;;;;;;12.00;100.00;101895.03;10264289;28;20040;-73
2021/10/14 08:30:21;;;;;;;19.58;10.38;;;;;;;12.04;100.00;101891.69;10257316;28;20057;-74
2021/10/14 08:35:19;;;;;;;20.83;11.02;;;;;;;12.08;100.00;101898.19;10258428;28;20539;-74
2021/10/14 08:40:16;;;;;;;21.67;8.15;;;;;;;12.08;100.00;101898.19;10263341;28;20080;-74
2021/10/14 08:45:13;;;;;;;19.63;8.23;;;;;;;12.15;100.00;101895.88;10256536;28;20110;-74
2021/10/14 08:50:10;;;;;;;18.00;6.93;;;;;;;12.27;100.00;101889.94;10256092;28;20084;-75
2021/10/14 08:55:07;;;;;;;11.23;5.50;;;;;;;12.34;100.00;101895.84;10266992;28;20080;-74
2021/10/14 09:00:04;;;;;;;13.05;6.07;;;;;;;12.35;100.00;101881.81;10256862;28;20045;-74
2021/10/14 09:05:08;;;;;;;17.67;6.40;;;;;;;12.33;100.00;101892.28;10260962;28;20615;-74
2021/10/14 09:10:11;;;;;;;11.50;6.18;;;;;;;12.40;100.00;101879.00;10258697;28;20106;-74
2021/10/14 09:15:10;;;;;;;13.70;6.10;;;;;;;12.42;100.00;101886.94;10257110;28;20065;-75
2021/10/14 09:20:30;;;;;;;10.05;5.10;;;;;;;12.45;100.00;101885.50;10244909;28;20049;-74
2021/10/14 09:25:29;;;;;;;14.30;5.10;;;;;;;12.51;100.00;101873.31;10255714;28;20048;-72
2021/10/14 09:30:25;;;;;;;11.32;4.63;;;;;;;12.60;100.00;101861.34;10254303;28;20110;-74
2021/10/14 09:35:25;;;;;;;11.35;4.10;;;;;;;12.77;99.15;101871.72;10252290;28;20483;-74
2021/10/14 09:40:26;;;;;;;9.85;3.10;;;;;;;12.81;97.79;101864.50;10255997;28;20057;-72
2021/10/14 09:45:33;;;;;;;6.45;2.70;;;;;;;12.83;96.61;101865.03;10259490;28;20044;-74
2021/10/14 09:50:34;;;;;;;6.78;2.70;;;;;;;12.77;95.67;101860.75;10250926;28;20075;-74
2021/10/14 09:55:31;;;;;;;6.95;2.78;;;;;;;12.72;95.92;101862.78;10253582;28;20522;-74
2021/10/14 10:00:29;;;;;;;8.02;3.13;;;;;;;12.66;96.19;101867.53;10272620;28;20102;-74
2021/10/14 10:05:29;;;;;;;6.40;2.60;;;;;;;12.64;96.49;101869.78;10271528;28;20079;-74
2021/10/14 10:10:29;;;;;;;5.10;2.83;;;;;;;12.63;97.26;101876.38;10268327;28;20047;-72
2021/10/14 10:15:39;;;;;;;10.77;2.45;;;;;;;12.64;97.82;101867.03;10265632;28;20044;-74
2021/10/14 10:20:39;;;;;;;3.92;1.30;;;;;;;12.67;98.13;101852.72;10266704;28;20075;-72
2021/10/14 10:25:36;;;;;;;3.97;1.30;;;;;;;12.72;98.82;101852.63;10273343;28;20074;-72
2021/10/14 10:30:37;;;;;;;5.82;1.50;;;;;;;12.83;99.36;101858.69;10274589;28;20780;-73
2021/10/14 10:35:47;;;;;;;4.00;1.60;;;;;;;12.84;98.90;101855.66;10263449;28;20073;-74
2021/10/14 10:40:46;;;;;;;4.97;2.17;;;;;;;12.83;98.03;101843.06;10270064;28;20049;-73
2021/10/14 10:45:44;;;;;;;4.60;2.00;;;;;;;12.82;97.51;101841.41;10265670;28;20041;-74
2021/10/14 10:50:44;;;;;;;4.93;2.00;;;;;;;12.89;97.97;101842.94;10262010;28;20163;-74
2021/10/14 10:55:52;;;;;;;3.85;1.70;;;;;;;12.76;97.67;101828.09;10269635;28;20068;-73
2021/10/14 11:00:48;;;;;;;6.30;2.00;;;;;;;12.73;97.83;101826.78;10276623;28;20037;-73
2021/10/14 11:05:56;;;;;;;6.65;1.90;;;;;;;12.80;98.35;101832.69;10262000;28;20045;-74
2021/10/14 11:11:03;;;;;;;20.23;2.70;;;;;;;12.88;97.47;101825.69;10272568;28;20041;-73
2021/10/14 11:16:01;;;;;;;3.42;1.50;;;;;;;12.87;95.21;101812.25;10264761;28;20128;-73
2021/10/14 11:21:03;;;;;;;5.88;2.10;;;;;;;13.03;94.07;101808.06;10264067;28;20059;-73
2021/10/14 11:26:12;;;;;;;6.75;1.90;;;;;;;13.20;94.29;101797.22;10266708;28;20037;-73
2021/10/14 11:31:08;;;;;;;8.70;2.35;;;;;;;13.15;93.38;101805.59;10252826;28;20099;-74
2021/10/14 11:36:08;;;;;;;6.38;2.33;;;;;;;13.13;91.86;101799.59;10262985;28;20041;-74
2021/10/14 11:41:15;;;;;;;6.32;2.42;;;;;;;13.07;91.58;101789.84;10258682;28;20407;-73
2021/10/14 11:46:22;;;;;;;5.38;2.53;;;;;;;13.03;90.96;101786.09;10255026;28;20127;-74
2021/10/14 11:51:19;;;;;;;12.48;2.95;;;;;;;13.14;90.78;101776.50;10260279;28;20457;-72
2021/10/14 11:56:15;;;;;;;10.15;2.65;;;;;;;13.02;89.74;101768.81;10265076;28;20577;-73
2021/10/14 12:01:13;;;;;;;7.88;2.25;;;;;;;13.13;89.95;101763.88;10258779;28;20077;-72
2021/10/14 12:06:10;;;;;;;11.30;2.60;;;;;;;13.24;90.10;101770.78;10261974;28;20075;-71
2021/10/14 12:11:18;;;;;;;7.68;2.53;;;;;;;13.30;89.46;101756.94;10269763;28;20077;-74
2021/10/14 12:16:15;;;;;;;9.40;3.10;;;;;;;13.36;88.51;101750.22;10265650;28;20136;-71
2021/10/14 12:21:47;;;;;;;7.07;2.95;;;;;;;13.32;88.53;101754.69;10259131;28;20044;-73
2021/10/14 12:26:46;;;;;;;7.22;3.47;;;;;;;13.36;87.71;101755.72;10257386;28;20048;-73
2021/10/14 12:31:42;;;;;;;11.13;4.20;;;;;;;13.28;88.15;101750.97;10258031;28;20045;-73
2021/10/14 12:36:46;;;;;;;11.38;4.15;;;;;;;13.23;88.31;101744.44;10253441;28;20045;-73
2021/10/14 12:41:53;;;;;;;9.85;4.90;;;;;;;13.18;88.11;101739.09;10257416;28;20057;-73
2021/10/14 12:46:58;;;;;;;14.48;5.32;;;;;;;13.19;88.17;101751.69;10263653;28;20045;-70
2021/10/14 12:51:55;;;;;;;9.90;5.28;;;;;;;13.19;88.57;101735.19;10244699;28;20387;-72
2021/10/14 12:56:58;;;;;;;11.48;5.20;;;;;;;13.22;88.14;101723.59;10260174;28;20069;-73
2021/10/14 13:01:59;;;;;;;14.48;5.15;;;;;;;13.21;88.06;101732.97;10265754;28;20526;-71
2021/10/14 13:06:56;;;;;;;10.85;5.05;;;;;;;13.10;87.80;101730.75;10265840;28;20612;-72
2021/10/14 13:11:53;;;;;;;15.07;4.82;;;;;;;13.04;87.99;101732.78;10268332;28;20068;-73
2021/10/14 13:16:53;;;;;;;10.45;4.50;;;;;;;13.06;87.11;101722.31;10264136;28;20418;-72
2021/10/14 13:21:49;;;;;;;16.17;5.22;;;;;;;13.05;86.96;101728.94;10261602;28;20053;-73
2021/10/14 13:26:46;;;;;;;10.52;4.78;;;;;;;13.04;88.55;101714.41;10260400;28;20616;-72
2021/10/14 13:31:43;;;;;;;11.60;4.57;;;;;;;13.06;87.67;101719.56;10250600;28;20075;-72
2021/10/14 13:36:41;;;;;;;12.73;4.70;;;;;;;13.13;87.31;101700.72;10254181;28;20055;-73
2021/10/14 13:41:37;;;;;;;9.98;5.43;;;;;;;13.18;86.89;101700.63;10258539;28;20068;-73
2021/10/14 13:46:37;;;;;;;10.18;5.00;;;;;;;13.16;85.55;101711.13;10263864;28;20083;-72
2021/10/14 13:51:33;;;;;;;10.68;4.32;;;;;;;13.23;85.08;101702.44;10252451;28;20049;-72
2021/10/14 13:56:30;;;;;;;10.30;4.90;;;;;;;13.34;85.00;101692.84;10257622;28;20049;-71
2021/10/14 14:01:26;;;;;;;9.38;4.03;;;;;;;13.29;84.53;101683.94;10262052;28;20487;-73
2021/10/14 14:06:28;;;;;;;12.02;4.95;;;;;;;13.25;84.54;101679.03;10265964;28;20049;-73
2021/10/14 14:11:24;;;;;;;9.32;4.22;;;;;;;13.23;84.82;101681.28;10257583;28;20465;-73
2021/10/14 14:16:21;;;;;;;12.20;4.13;;;;;;;13.18;84.99;101673.19;10261451;28;20053;-72
2021/10/14 14:21:17;;;;;;;9.80;4.65;;;;;;;13.30;85.20;101677.28;10253638;28;20041;-72
2021/10/14 14:26:14;;;;;;;11.35;4.80;;;;;;;13.26;84.42;101674.34;10261785;28;20052;-73
2021/10/14 14:31:11;;;;;;;10.20;4.10;;;;;;;13.18;84.70;101689.66;10252165;28;20103;-73
2021/10/14 14:36:08;;;;;;;14.32;4.72;;;;;;;13.15;84.47;101684.75;10251936;28;20053;-73
2021/10/14 14:41:06;;;;;;;9.15;4.20;;;;;;;13.22;84.61;101674.16;10249443;28;20086;-73
2021/10/14 14:46:06;;;;;;;12.50;4.88;;;;;;;13.03;83.06;101676.28;10254901;28;20099;-73
2021/10/14 14:51:02;;;;;;;10.15;4.22;;;;;;;13.04;84.37;101666.91;10255335;28;20084;-74
2021/10/14 14:55:59;;;;;;;14.23;4.80;;;;;;;13.00;84.04;101676.91;10272082;28;20131;-73
2021/10/14 15:00:55;;;;;;;12.38;4.80;;;;;;;12.98;83.68;101665.44;10262470;28;20045;-73
2021/10/14 15:05:52;;;;;;;10.70;4.28;;;;;;;12.96;84.05;101670.41;10262420;28;20075;-73
2021/10/14 15:10:48;;;;;;;11.90;4.25;;;;;;;12.91;83.45;101667.78;10262426;28;20072;-71
2021/10/14 15:15:45;;;;;;;12.60;4.63;;;;;;;12.90;82.98;101671.66;10261704;28;20060;-74
2021/10/14 15:20:42;;;;;;;14.25;5.45;;;;;;;12.94;83.50;101656.19;10258690;28;20045;-73
2021/10/14 15:25:38;;;;;;;8.73;4.78;;;;;;;12.91;83.13;101656.81;10260018;28;20461;-75
2021/10/14 15:30:37;;;;;;;9.45;4.40;;;;;;;12.88;83.07;101646.44;10252975;28;20075;-75
2021/10/14 15:35:34;;;;;;;15.70;6.20;;;;;;;12.81;82.98;101658.69;10261019;28;20128;-72
2021/10/14 15:40:32;;;;;;;11.20;4.78;;;;;;;12.85;82.87;101645.94;10263391;28;20095;-72
2021/10/14 15:45:28;;;;;;;12.35;4.93;;;;;;;12.89;83.07;101653.56;10264202;28;20565;-73
2021/10/14 15:50:24;;;;;;;11.68;5.38;;;;;;;12.88;82.44;101646.44;10252557;28;21058;-73
2021/10/14 15:55:21;;;;;;;13.45;4.80;;;;;;;12.88;82.83;101640.94;10266562;28;20059;-72
2021/10/14 16:00:17;;;;;;;12.43;4.72;;;;;;;12.81;82.40;101647.69;10262189;28;20049;-74
2021/10/14 16:05:17;;;;;;;11.20;4.25;;;;;;;12.77;82.81;101657.66;10267843;28;20496;-76
2021/10/14 16:10:13;;;;;;;9.80;3.90;;;;;;;12.71;82.42;101653.41;10255257;28;20052;-73
2021/10/14 16:15:10;;;;;;;12.20;4.35;;;;;;;12.68;81.99;101651.28;10266868;28;20503;-71
2021/10/14 16:20:07;;;;;;;9.43;3.88;;;;;;;12.67;81.97;101663.41;10272205;28;20107;-72
2021/10/14 16:25:05;;;;;;;12.88;4.22;;;;;;;12.66;82.19;101639.81;10255942;28;20211;-72
2021/10/14 16:30:07;;;;;;;13.82;4.60;;;;;;;12.64;82.53;101636.56;10256539;28;20049;-72
2021/10/14 16:35:04;;;;;;;12.32;4.18;;;;;;;12.67;82.44;101635.97;10255091;28;20052;-72
2021/10/14 16:40:00;;;;;;;11.02;5.00;;;;;;;12.66;82.00;101623.34;10267807;28;20049;-71
2021/10/14 16:44:58;;;;;;;11.18;4.32;;;;;;;12.67;82.21;101627.72;10261158;28;20040;-70
2021/10/14 16:49:55;;;;;;;9.18;4.30;;;;;;;12.61;81.77;101620.72;10251644;28;20098;-71
2021/10/14 16:54:51;;;;;;;11.85;3.90;;;;;;;12.59;81.96;101615.53;10252899;28;20060;-69
2021/10/14 16:59:47;;;;;;;8.75;4.07;;;;;;;12.52;82.02;101623.38;10263665;28;20088;-72
2021/10/14 17:04:44;;;;;;;7.45;4.40;;;;;;;12.52;82.21;101617.09;10258168;28;20543;-72
2021/10/14 17:09:41;;;;;;;9.90;4.47;;;;;;;12.54;82.16;101625.81;10251040;28;20079;-72
2021/10/14 17:14:39;;;;;;;10.40;4.20;;;;;;;12.58;82.69;101611.19;10242219;28;20124;-73
2021/10/14 17:19:39;;;;;;;9.55;4.28;;;;;;;12.58;82.37;101608.44;10254750;28;20106;-71
2021/10/14 17:40:10;;;;;;;12.90;4.53;;;;;;;12.53;82.55;101596.75;10240656;28;20139;-72
2021/10/14 17:45:15;;;;;;;11.48;4.35;;;;;;;12.48;81.53;101594.13;10247700;28;20053;-72
2021/10/14 17:50:17;;;;;;;10.95;4.57;;;;;;;12.47;81.13;101592.53;10246984;28;20158;-70
2021/10/14 17:55:16;;;;;;;17.17;4.55;;;;;;;12.49;80.69;101584.81;10247034;28;20126;-71
2021/10/14 18:00:13;;;;;;;13.02;5.40;;;;;;;12.48;80.40;101583.16;10250500;28;20542;-72
2021/10/14 18:05:25;;;;;;;10.25;4.78;;;;;;;12.46;80.49;101579.91;10253021;28;20128;-72
2021/10/14 18:41:36;;;;;;;15.10;6.45;;;;;;;12.35;78.63;101525.31;10258404;28;20041;-71
2021/10/14 18:46:33;;;;;;;8.90;5.20;;;;;;;12.32;78.60;101520.47;10269750;28;20119;-72
2021/10/14 18:51:30;;;;;;;9.23;4.50;;;;;;;12.36;78.55;101526.91;10267043;28;20545;-71
2021/10/14 18:56:27;;;;;;;12.68;5.32;;;;;;;12.37;78.73;101511.28;10266935;28;20132;-71
2021/10/14 19:01:24;;;;;;;9.55;5.20;;;;;;;12.40;79.41;101514.22;10257082;28;20049;-71
2021/10/14 19:06:24;;;;;;;8.70;5.40;;;;;;;12.37;79.64;101501.13;10261654;28;20049;-72
2021/10/14 19:28:29;;;;;;;12.13;5.78;;;;;;;12.32;80.88;101498.53;10265919;28;20068;-71
2021/10/14 20:14:52;;;;;;;8.60;5.00;;;;;;;12.26;80.18;101472.34;10261465;28;20049;-72
2021/10/14 20:20:03;;;;;;;12.32;5.22;;;;;;;12.29;80.00;101455.25;10259405;28;20068;-72
2021/10/14 20:25:00;;;;;;;8.10;5.00;;;;;;;12.31;79.49;101463.97;10264198;28;20051;-72
2021/10/14 20:29:57;;;;;;;7.88;4.63;;;;;;;12.27;79.10;101446.53;10261641;28;20083;-70
2021/10/14 20:40:15;;;;;;;7.57;4.25;;;;;;;12.29;79.16;101457.19;10227616;28;20057;-71
2021/10/14 20:45:11;;;;;;;8.68;4.80;;;;;;;12.25;79.54;101454.25;10261454;28;20075;-70
2021/10/14 20:50:11;;;;;;;7.53;4.50;;;;;;;12.27;79.11;101443.78;10263654;28;20045;-68
2021/10/14 20:55:13;;;;;;;10.25;4.18;;;;;;;12.27;79.21;101435.56;10262582;28;20106;-68
2021/10/14 21:05:30;;;;;;;8.73;4.35;;;;;;;12.24;79.73;101422.47;10269073;28;20068;-68
2021/10/14 21:10:26;;;;;;;8.43;3.90;;;;;;;12.22;79.75;101411.00;10263738;28;20041;-68
2021/10/14 21:15:23;;;;;;;7.28;3.58;;;;;;;12.24;79.90;101419.75;10245514;28;20041;-68
2021/10/14 21:20:21;;;;;;;8.95;4.15;;;;;;;12.24;80.03;101413.44;10257322;28;20110;-70
2021/10/14 21:25:17;;;;;;;9.40;3.92;;;;;;;12.23;80.56;101401.69;10261244;28;20136;-66
2021/10/14 21:30:27;;;;;;;10.05;4.47;;;;;;;12.23;80.50;101387.97;10258770;28;20056;-70
2021/10/14 21:40:31;;;;;;;5.40;3.42;;;;;;;12.26;81.18;101381.06;10253929;28;20045;-70
2021/10/14 21:45:28;;;;;;;8.38;3.88;;;;;;;12.22;81.88;101380.84;10263402;28;20124;-71
2021/10/14 21:50:25;;;;;;;10.63;4.20;;;;;;;12.24;82.01;101375.88;10252002;28;20052;-70
2021/10/14 21:55:24;;;;;;;7.78;4.75;;;;;;;12.25;82.29;101360.22;10262147;28;20071;-70
2021/10/14 22:00:23;;;;;;;9.13;4.57;;;;;;;12.26;82.89;101353.63;10259498;28;20144;-70
2021/10/14 22:05:21;;;;;;;8.68;4.25;;;;;;;12.22;83.55;101345.22;10257189;28;20468;-69
2021/10/14 22:10:17;;;;;;;9.35;4.68;;;;;;;12.25;83.92;101339.09;10249246;28;20080;-69
2021/10/14 22:15:15;;;;;;;12.38;5.45;;;;;;;12.26;83.84;101324.28;10261642;28;20091;-70
2021/10/14 22:20:14;;;;;;;11.10;5.55;;;;;;;12.24;84.13;101304.59;10257356;28;20065;-69
2021/10/14 22:25:11;;;;;;;10.65;5.55;;;;;;;12.23;84.51;101302.16;10260977;28;20044;-70
2021/10/14 22:30:10;;;;;;;10.88;6.00;;;;;;;12.26;84.56;101294.13;10248173;28;20053;-69
2021/10/14 22:35:08;;;;;;;13.02;6.90;;;;;;;12.28;84.62;101280.91;10249882;28;20083;-70
2021/10/14 22:40:05;;;;;;;11.13;7.40;;;;;;;12.27;84.86;101265.56;10263030;28;20110;-70
2021/10/14 22:45:03;;;;;;;13.13;8.02;;;;;;;12.30;85.04;101261.38;10254490;28;20546;-69
2021/10/14 22:50:00;;;;;;;15.43;9.02;;;;;;;12.26;85.45;101258.47;10262010;28;20106;-70
2021/10/14 22:54:57;;;;;;;17.63;8.85;;;;;;;12.28;85.76;101255.44;10244182;28;20041;-69
2021/10/14 22:59:53;;;;;;;16.58;9.95;;;;;;;12.32;86.26;101243.50;10253321;28;20641;-69
2021/10/14 23:04:50;;;;;;;16.42;9.93;;;;;;;12.34;86.31;101227.53;10255581;28;20049;-69
2021/10/14 23:09:46;;;;;;;14.55;10.35;;;;;;;12.28;86.83;101228.81;10265566;28;20057;-70
2021/10/14 23:14:43;;;;;;;19.00;11.57;;;;;;;12.29;87.04;101213.16;10263938;28;20037;-69
2021/10/14 23:19:39;;;;;;;15.93;12.30;;;;;;;12.25;86.91;101207.50;10252407;28;20057;-69
2021/10/14 23:24:36;;;;;;;20.52;12.65;;;;;;;12.29;87.14;101207.69;10266600;28;20144;-71
2021/10/14 23:29:33;;;;;;;19.30;13.13;;;;;;;12.30;87.35;101210.13;10261100;28;20076;-69
2021/10/14 23:34:29;;;;;;;21.42;13.85;;;;;;;12.30;nan;101204.63;10277754;28;20136;-69
2021/10/14 23:39:26;;;;;;;20.67;13.63;;;;;;;12.29;87.28;101200.25;10260947;28;20070;-69
2021/10/14 23:44:22;;;;;;;20.23;12.90;;;;;;;12.32;87.64;101187.84;10259056;28;20056;-69
2021/10/14 23:49:19;;;;;;;20.05;13.85;;;;;;;12.37;87.93;101188.53;10267311;28;20045;-68
2021/10/14 23:54:15;;;;;;;21.30;14.55;;;;;;;12.32;88.10;101180.44;10265796;28;20041;-69
2021/10/14 23:59:12;;;;;;;21.20;14.77;;;;;;;12.32;88.32;101180.44;10259522;28;20061;-69
